Flight Number: AVA1564 Duration: 2:30
Departure: Irkutsk (UIII) at 14:15 Distance: 1005.6 Nm
Arrival: Yakutsk (UEEE) at 16:45 Equipment: MD-81

Weather Information
Irkutsk, Russia (UIII) 52-16N 104-19E 469M Mar 01, 2021 - 11:30 PM EST / 2021.03.02 0430 UTC
Wind: from the S (190 degrees) at 4 MPH (4 KT):0
Visibility: greater than 7 mile(s):0 Temperature: 12 F (-11 C) Dew Point: 3 F (-16 C) Relative Humidity: 66% Pressure (altimeter): 29.65 in. Hg (1004 hPa)
ob: UIII 020430Z 19002MPS CAVOK M11/M16 Q1004 R12/810560 NOSIG RMK QFE711/0949 cycle: 4
Sunrise: 23:48 Sunset: 10:40 (UTC)

Jakutsk, Russia (UEEE) 62-01N 129-43E 101M Mar 01, 2021 - 11:30 PM EST / 2021.03.02 0430 UTC
Wind: from the ESE (120 degrees) at 4 MPH (4 KT):0
Visibility: greater than 7 mile(s):0 Temperature: -20 F (-29 C) Dew Point: -27 F (-33 C) Relative Humidity: 68% Pressure (altimeter): 30.15 in. Hg (1021 hPa)
ob: UEEE 020430Z 12002MPS CAVOK M29/M33 Q1021 R23L/450160 NOSIG RMK QFE757 cycle: 4
Sunrise: 22:23 Sunset: 08:42 (UTC)

TAF:2021/03/02 03:21 TAF UEEE 020200Z 0203/0309 28003MPS CAVOK

This route has never been flown.

Route map